createdAt,value
2019-01-29T00:01:35.424Z,5.28
2019-01-29T00:04:06.652Z,5.62
2019-01-29T00:06:39.726Z,6.78
2019-01-29T00:09:10.142Z,5.62
2019-01-29T00:11:48.231Z,5.75
2019-01-29T00:14:18.338Z,6.22
2019-01-29T00:16:48.430Z,11.10
2019-01-29T00:19:18.514Z,5.90
2019-01-29T00:21:52.526Z,7.20
2019-01-29T00:24:31.558Z,8.00
2019-01-29T00:27:01.646Z,6.10
2019-01-29T00:29:32.760Z,6.37
2019-01-29T00:32:02.842Z,6.50
2019-01-29T00:34:32.922Z,6.30
2019-01-29T00:37:03.011Z,7.95
2019-01-29T00:39:42.154Z,6.75
2019-01-29T00:42:12.233Z,7.65
2019-01-29T00:44:42.320Z,7.12
2019-01-29T00:47:14.386Z,5.72
2019-01-29T00:49:44.486Z,6.67
2019-01-29T00:52:18.158Z,4.78
2019-01-29T00:54:53.318Z,6.22
2019-01-29T00:57:24.362Z,5.80
2019-01-29T00:59:54.444Z,6.00
2019-01-29T01:02:27.434Z,5.72
2019-01-29T01:05:06.378Z,5.83
2019-01-29T01:07:42.311Z,5.70
2019-01-29T01:10:18.162Z,5.55
2019-01-29T01:12:48.335Z,4.55
2019-01-29T01:15:18.650Z,5.92
2019-01-29T01:17:57.782Z,4.15
2019-01-29T01:20:42.026Z,5.00
2019-01-29T01:23:12.206Z,5.10
2019-01-29T01:25:43.272Z,4.97
2019-01-29T01:28:32.706Z,5.05
2019-01-29T01:31:06.770Z,5.47
2019-01-29T01:33:36.862Z,6.92
2019-01-29T01:36:06.986Z,4.45
2019-01-29T01:38:37.075Z,5.40
2019-01-29T01:41:08.186Z,5.87
2019-01-29T01:43:38.278Z,5.92
2019-01-29T01:46:10.346Z,4.97
2019-01-29T01:48:59.058Z,5.50
2019-01-29T01:51:30.030Z,4.72
2019-01-29T01:54:01.086Z,6.15
2019-01-29T01:56:37.031Z,6.25
2019-01-29T01:59:08.109Z,4.92
2019-01-29T02:01:38.203Z,5.62
2019-01-29T02:04:08.324Z,5.83
2019-01-29T02:06:38.418Z,6.20
2019-01-29T02:09:10.257Z,7.12
2019-01-29T02:11:41.371Z,6.55
2019-01-29T02:14:11.518Z,7.42
2019-01-29T02:16:48.565Z,6.75
2019-01-29T02:19:19.626Z,6.33
2019-01-29T02:21:49.802Z,5.72
2019-01-29T02:24:21.867Z,6.35
2019-01-29T02:26:56.187Z,7.05
2019-01-29T02:29:26.270Z,7.80
2019-01-29T02:31:56.354Z,6.85
2019-01-29T02:34:26.458Z,7.72
2019-01-29T02:36:56.546Z,6.95
2019-01-29T02:39:34.486Z,6.60
2019-01-29T02:42:06.574Z,7.97
2019-01-29T02:44:37.178Z,8.45
2019-01-29T02:47:15.975Z,7.47
2019-01-29T02:49:46.056Z,7.50
2019-01-29T02:52:20.204Z,8.15
2019-01-29T02:54:52.264Z,7.85
2019-01-29T02:57:34.071Z,8.23
2019-01-29T03:00:09.658Z,8.03
2019-01-29T03:02:51.717Z,7.10
2019-01-29T03:05:22.063Z,8.70
2019-01-29T03:07:52.391Z,8.40
2019-01-29T03:10:26.808Z,8.15
2019-01-29T03:12:58.834Z,8.15
2019-01-29T03:15:31.740Z,9.50
2019-01-29T03:18:01.926Z,7.78
2019-01-29T03:20:32.983Z,8.20
2019-01-29T03:23:03.066Z,8.38
2019-01-29T03:25:35.232Z,8.23
2019-01-29T03:28:06.370Z,8.30
2019-01-29T03:30:36.900Z,9.30
2019-01-29T03:33:06.981Z,9.03
2019-01-29T03:35:37.071Z,9.48
2019-01-29T03:38:07.222Z,9.48
2019-01-29T03:40:38.310Z,9.65
2019-01-29T03:43:09.390Z,8.28
2019-01-29T03:45:42.454Z,9.28
2019-01-29T03:48:18.406Z,9.68
2019-01-29T03:50:51.506Z,9.60
2019-01-29T03:53:25.674Z,10.25
2019-01-29T03:55:55.798Z,9.43
2019-01-29T03:58:31.691Z,9.03
2019-01-29T04:01:04.115Z,9.10
2019-01-29T04:03:34.219Z,8.85
2019-01-29T04:06:11.834Z,8.58
2019-01-29T04:08:41.944Z,9.43
2019-01-29T04:11:13.036Z,9.30
2019-01-29T04:13:43.114Z,9.13
2019-01-29T04:16:15.176Z,8.45
2019-01-29T04:18:46.328Z,8.93
2019-01-29T04:21:16.409Z,9.75
2019-01-29T04:23:48.499Z,10.18
2019-01-29T04:26:19.503Z,10.88
2019-01-29T04:28:49.627Z,10.68
2019-01-29T04:31:21.670Z,9.38
2019-01-29T04:33:52.702Z,10.03
2019-01-29T04:36:25.815Z,9.60
2019-01-29T04:39:01.739Z,9.50
2019-01-29T04:41:34.846Z,10.40
2019-01-29T04:44:06.422Z,9.65
2019-01-29T04:46:36.521Z,10.60
2019-01-29T04:49:06.610Z,10.00
2019-01-29T04:51:37.744Z,10.15
2019-01-29T04:54:07.903Z,9.95
2019-01-29T04:56:38.936Z,10.35
2019-01-29T04:59:09.006Z,9.75
2019-01-29T05:01:39.114Z,11.28
2019-01-29T05:04:10.104Z,9.45
2019-01-29T05:06:41.170Z,10.30
2019-01-29T05:09:11.350Z,8.80
2019-01-29T05:11:48.468Z,9.95
2019-01-29T05:14:18.549Z,9.28
2019-01-29T05:16:57.910Z,11.18
2019-01-29T05:19:28.947Z,10.95
2019-01-29T05:21:59.054Z,10.75
2019-01-29T05:24:29.151Z,9.50
2019-01-29T05:26:59.235Z,9.45
2019-01-29T05:29:32.408Z,9.80
2019-01-29T05:32:05.795Z,10.35
2019-01-29T05:34:35.871Z,11.50
2019-01-29T05:37:06.942Z,10.35
2019-01-29T05:39:43.844Z,12.00
2019-01-29T05:42:13.960Z,10.08
2019-01-29T05:44:56.140Z,10.03
2019-01-29T05:47:31.275Z,9.88
2019-01-29T05:50:14.064Z,9.20
2019-01-29T05:52:44.303Z,9.58
2019-01-29T05:55:23.230Z,9.05
2019-01-29T05:57:54.303Z,9.53
2019-01-29T06:00:43.171Z,9.55
2019-01-29T06:03:22.579Z,9.85
2019-01-29T06:05:56.783Z,10.38
2019-01-29T06:08:28.863Z,10.00
2019-01-29T06:10:58.940Z,8.78
2019-01-29T06:13:31.708Z,9.63
2019-01-29T06:16:07.959Z,9.60
2019-01-29T06:18:39.968Z,10.10
2019-01-29T06:21:11.035Z,11.68
2019-01-29T06:23:45.112Z,10.25
2019-01-29T06:26:23.263Z,12.55
2019-01-29T06:29:02.955Z,10.78
2019-01-29T06:31:33.170Z,10.23
2019-01-29T06:34:03.255Z,10.13
2019-01-29T06:36:33.335Z,9.60
2019-01-29T06:39:06.775Z,14.60
2019-01-29T06:41:39.480Z,13.90
2019-01-29T06:44:31.695Z,26.15
2019-01-29T06:47:01.791Z,16.27
2019-01-29T06:49:31.879Z,14.10
2019-01-29T06:52:01.953Z,10.72
2019-01-29T06:54:35.294Z,10.00
2019-01-29T06:57:17.416Z,10.78
2019-01-29T06:59:47.506Z,9.95
2019-01-29T07:02:43.426Z,10.00
2019-01-29T07:05:27.445Z,9.60
2019-01-29T07:07:57.590Z,11.03
2019-01-29T07:10:31.219Z,9.95
2019-01-29T07:13:06.223Z,9.95
2019-01-29T07:16:02.153Z,10.58
2019-01-29T07:18:37.027Z,9.95
2019-01-29T07:21:09.123Z,11.18
2019-01-29T07:23:40.278Z,11.70
2019-01-29T07:26:12.356Z,10.40
2019-01-29T07:28:47.519Z,11.57
2019-01-29T07:31:17.628Z,11.08
2019-01-29T07:33:48.655Z,12.20
2019-01-29T07:36:18.811Z,11.10
2019-01-29T07:38:52.637Z,12.98
2019-01-29T07:41:22.707Z,13.40
2019-01-29T07:43:54.827Z,11.88
2019-01-29T07:46:25.967Z,11.53
2019-01-29T07:48:56.043Z,11.15
2019-01-29T07:51:26.139Z,9.83
2019-01-29T07:53:58.199Z,10.80
2019-01-29T07:56:34.283Z,10.68
2019-01-29T07:59:04.561Z,9.40
2019-01-29T08:01:34.641Z,10.20
2019-01-29T08:04:06.019Z,10.18
2019-01-29T08:06:37.159Z,11.03
2019-01-29T08:09:10.345Z,9.58
2019-01-29T08:11:46.074Z,11.50
2019-01-29T08:14:28.418Z,11.05
2019-01-29T08:16:58.495Z,10.23
2019-01-29T08:19:30.487Z,9.70
2019-01-29T08:22:01.551Z,11.73
2019-01-29T08:24:33.731Z,10.93
2019-01-29T08:27:05.739Z,11.83
2019-01-29T08:29:35.847Z,10.30
2019-01-29T08:32:06.948Z,10.20
2019-01-29T08:34:37.060Z,10.58
2019-01-29T08:37:07.172Z,11.20
2019-01-29T08:39:37.236Z,10.23
2019-01-29T08:42:07.319Z,10.65
2019-01-29T08:44:37.495Z,10.60
2019-01-29T08:47:24.919Z,9.93
2019-01-29T08:49:56.932Z,10.40
2019-01-29T08:52:30.627Z,9.05
2019-01-29T08:55:10.614Z,11.40
2019-01-29T08:57:35.935Z,10.70
2019-01-29T09:00:15.463Z,10.18
2019-01-29T09:02:52.715Z,9.40
2019-01-29T09:05:25.771Z,10.10
2019-01-29T09:07:55.847Z,9.83
2019-01-29T09:10:27.859Z,10.30
2019-01-29T09:12:57.947Z,10.85
2019-01-29T09:15:29.979Z,13.30
2019-01-29T09:18:00.051Z,13.80
2019-01-29T09:20:31.111Z,12.70
2019-01-29T09:23:01.192Z,11.40
2019-01-29T09:25:31.311Z,11.95
2019-01-29T09:28:08.121Z,12.43
2019-01-29T09:30:40.255Z,9.23
2019-01-29T09:33:10.495Z,12.15
2019-01-29T09:35:41.555Z,9.93
2019-01-29T09:38:11.636Z,12.23
2019-01-29T09:40:41.715Z,11.22
2019-01-29T09:43:11.839Z,12.23
2019-01-29T09:45:44.459Z,8.78
2019-01-29T09:48:14.519Z,9.68
2019-01-29T09:50:44.603Z,10.85
2019-01-29T09:53:15.355Z,10.85
2019-01-29T09:55:45.459Z,8.55
2019-01-29T09:58:15.555Z,8.65
2019-01-29T10:00:47.575Z,9.40
2019-01-29T10:03:18.605Z,8.83
2019-01-29T10:05:49.632Z,8.28
2019-01-29T10:08:22.573Z,9.40
2019-01-29T10:10:52.659Z,9.10
2019-01-29T10:13:22.729Z,8.88
2019-01-29T10:15:57.764Z,8.80
2019-01-29T10:18:27.839Z,9.23
2019-01-29T10:20:58.855Z,8.40
2019-01-29T10:23:29.020Z,9.23
2019-01-29T10:25:59.117Z,8.78
2019-01-29T10:28:31.139Z,8.90
2019-01-29T10:31:03.209Z,10.28
2019-01-29T10:33:37.643Z,8.65
2019-01-29T10:36:07.791Z,9.93
2019-01-29T10:38:37.875Z,9.70
2019-01-29T10:41:08.875Z,8.03
2019-01-29T10:43:38.945Z,9.50
2019-01-29T10:46:10.071Z,9.25
2019-01-29T10:48:40.143Z,8.55
2019-01-29T10:51:11.203Z,10.60
2019-01-29T10:53:42.286Z,8.48
2019-01-29T10:56:13.385Z,7.33
2019-01-29T10:58:43.456Z,6.97
2019-01-29T11:01:13.557Z,7.30
2019-01-29T11:03:43.707Z,6.85
2019-01-29T11:06:13.768Z,6.17
2019-01-29T11:08:43.847Z,7.25
2019-01-29T11:11:13.991Z,6.42
2019-01-29T11:13:44.099Z,7.90
2019-01-29T11:16:14.183Z,6.37
2019-01-29T11:18:44.247Z,5.67
2019-01-29T11:21:14.341Z,6.55
2019-01-29T11:23:44.415Z,5.70
2019-01-29T11:26:14.531Z,5.92
2019-01-29T11:28:58.568Z,6.55
2019-01-29T11:31:39.031Z,6.45
2019-01-29T11:34:10.096Z,6.72
2019-01-29T11:36:40.447Z,6.40
2019-01-29T11:39:11.138Z,6.65
2019-01-29T11:41:41.281Z,8.10
2019-01-29T11:44:11.367Z,6.28
2019-01-29T11:46:42.476Z,6.15
2019-01-29T11:49:13.590Z,6.37
2019-01-29T11:51:45.625Z,6.00
2019-01-29T11:54:17.673Z,4.70
2019-01-29T11:56:50.104Z,4.30
2019-01-29T11:59:21.088Z,4.12
2019-01-29T12:01:53.144Z,4.42
2019-01-29T12:04:24.275Z,4.95
2019-01-29T12:06:54.360Z,4.50
2019-01-29T12:09:26.376Z,4.72
2019-01-29T12:11:58.431Z,5.28
2019-01-29T12:14:28.508Z,4.28
2019-01-29T12:16:58.580Z,4.17
2019-01-29T12:19:28.660Z,3.95
2019-01-29T12:22:00.636Z,3.45
2019-01-29T12:24:30.716Z,3.50
2019-01-29T12:27:01.732Z,3.70
2019-01-29T12:29:31.808Z,3.55
2019-01-29T12:32:13.513Z,3.92
2019-01-29T12:34:53.016Z,3.50
2019-01-29T12:37:27.120Z,3.52
2019-01-29T12:39:57.316Z,3.90
2019-01-29T12:42:27.494Z,3.77
2019-01-29T12:44:58.760Z,3.10
2019-01-29T12:47:29.059Z,2.72
2019-01-29T12:49:59.480Z,2.77
2019-01-29T12:52:37.368Z,3.70
2019-01-29T12:55:17.038Z,3.07
2019-01-29T12:57:47.428Z,2.60
2019-01-29T13:00:21.508Z,2.40
2019-01-29T13:02:53.680Z,2.50
2019-01-29T13:05:25.036Z,2.60
2019-01-29T13:07:57.304Z,2.42
2019-01-29T13:10:29.088Z,2.75
2019-01-29T13:13:02.416Z,2.70
2019-01-29T13:15:35.672Z,2.50
2019-01-29T13:18:06.881Z,2.72
2019-01-29T13:20:37.140Z,3.02
2019-01-29T13:23:08.540Z,3.12
2019-01-29T13:25:38.788Z,3.22
2019-01-29T13:28:09.173Z,4.60
2019-01-29T13:30:39.656Z,3.47
2019-01-29T13:33:12.340Z,3.08
2019-01-29T13:35:46.389Z,2.92
2019-01-29T13:38:17.781Z,3.60
2019-01-29T13:40:53.980Z,3.20
2019-01-29T13:43:27.372Z,4.00
2019-01-29T13:45:57.916Z,3.52
2019-01-29T13:48:41.008Z,3.37
2019-01-29T13:51:11.872Z,3.85
2019-01-29T13:53:44.130Z,5.95
2019-01-29T13:56:17.448Z,3.25
2019-01-29T13:58:47.837Z,2.90
2019-01-29T14:01:18.217Z,2.55
2019-01-29T14:03:48.472Z,2.42
2019-01-29T14:06:18.852Z,2.60
2019-01-29T14:08:49.299Z,2.27
2019-01-29T14:11:20.380Z,2.40
2019-01-29T14:13:50.704Z,1.52
2019-01-29T14:16:21.905Z,1.95
2019-01-29T14:18:52.036Z,2.10
2019-01-29T14:21:32.771Z,2.00
2019-01-29T14:24:05.022Z,2.05
2019-01-29T14:26:35.384Z,2.20
2019-01-29T14:29:06.501Z,1.95
2019-01-29T14:31:43.354Z,2.00
2019-01-29T14:34:13.724Z,2.02
2019-01-29T14:36:44.836Z,2.17
2019-01-29T14:39:23.160Z,2.17
2019-01-29T14:41:57.104Z,2.80
2019-01-29T14:44:27.509Z,2.20
2019-01-29T14:47:03.836Z,3.30
2019-01-29T14:49:36.012Z,2.77
2019-01-29T14:52:06.392Z,2.92
2019-01-29T14:54:38.625Z,3.15
2019-01-29T14:57:14.905Z,2.83
2019-01-29T14:59:45.988Z,2.90
2019-01-29T15:02:17.296Z,2.98
2019-01-29T15:04:48.469Z,3.25
2019-01-29T15:07:29.705Z,3.42
2019-01-29T15:09:56.084Z,3.20
2019-01-29T15:12:26.613Z,3.62
2019-01-29T15:15:03.027Z,3.47
2019-01-29T15:17:36.964Z,3.33
2019-01-29T15:20:11.558Z,4.00
2019-01-29T15:22:42.984Z,3.60
2019-01-29T15:25:19.248Z,4.78
2019-01-29T15:27:55.876Z,4.50
2019-01-29T15:30:34.596Z,3.87
2019-01-29T15:33:08.052Z,4.33
2019-01-29T15:35:39.240Z,7.20
2019-01-29T15:38:10.629Z,5.95
2019-01-29T15:40:41.937Z,7.62
2019-01-29T15:43:13.173Z,8.28
2019-01-29T15:45:43.388Z,7.67
2019-01-29T15:48:24.518Z,5.03
2019-01-29T15:50:56.013Z,4.92
2019-01-29T15:53:26.423Z,5.10
2019-01-29T15:55:57.469Z,7.97
2019-01-29T15:58:42.713Z,8.33
2019-01-29T16:01:15.330Z,7.92
2019-01-29T16:03:53.708Z,8.23
2019-01-29T16:06:24.187Z,8.75
2019-01-29T16:08:56.381Z,7.35
2019-01-29T16:11:26.457Z,7.75
2019-01-29T16:13:57.538Z,6.47
2019-01-29T16:16:37.962Z,7.20
2019-01-29T16:19:20.265Z,7.83
2019-01-29T16:21:54.436Z,9.65
2019-01-29T16:24:26.549Z,11.03
2019-01-29T16:26:56.641Z,10.18
2019-01-29T16:29:29.249Z,10.10
2019-01-29T16:32:07.386Z,14.98
2019-01-29T16:34:39.380Z,14.87
2019-01-29T16:37:15.263Z,14.50
2019-01-29T16:39:45.349Z,12.53
2019-01-29T16:42:15.661Z,11.88
2019-01-29T16:44:53.489Z,11.55
2019-01-29T16:47:29.339Z,15.13
2019-01-29T16:50:15.709Z,8.95
2019-01-29T16:53:00.219Z,8.98
2019-01-29T16:55:31.764Z,7.00
2019-01-29T16:58:02.034Z,9.88
2019-01-29T17:00:43.862Z,10.05
2019-01-29T17:03:14.893Z,8.48
2019-01-29T17:05:50.051Z,7.78
2019-01-29T17:08:22.037Z,10.70
2019-01-29T17:10:52.142Z,10.32
2019-01-29T17:13:23.213Z,10.30
2019-01-29T17:15:53.389Z,9.13
2019-01-29T17:18:23.509Z,7.65
2019-01-29T17:20:53.665Z,11.57
2019-01-29T17:23:24.761Z,11.30
2019-01-29T17:26:13.473Z,10.25
2019-01-29T17:28:53.310Z,8.40
2019-01-29T17:31:25.041Z,12.13
2019-01-29T17:34:02.213Z,8.30
2019-01-29T17:36:52.021Z,9.85
2019-01-29T17:39:27.953Z,10.40
2019-01-29T17:42:03.685Z,12.80
2019-01-29T17:44:34.729Z,10.95
2019-01-29T17:47:04.837Z,11.22
2019-01-29T17:49:34.925Z,10.75
2019-01-29T17:52:05.237Z,10.58
2019-01-29T17:54:35.337Z,9.80
2019-01-29T17:57:13.527Z,9.75
2019-01-29T17:59:43.617Z,10.65
2019-01-29T18:02:15.601Z,9.65
2019-01-29T18:04:50.621Z,10.20
2019-01-29T18:07:41.794Z,10.82
2019-01-29T18:10:16.193Z,9.50
2019-01-29T18:12:47.325Z,11.68
2019-01-29T18:15:24.487Z,11.05
2019-01-29T18:18:01.329Z,10.13
2019-01-29T18:20:32.393Z,11.38
2019-01-29T18:23:02.513Z,10.93
2019-01-29T18:25:33.581Z,11.83
2019-01-29T18:28:03.877Z,11.10
2019-01-29T18:30:40.289Z,12.73
2019-01-29T18:33:11.293Z,12.63
2019-01-29T18:35:43.475Z,11.33
2019-01-29T18:38:13.567Z,11.63
2019-01-29T18:40:51.189Z,11.68
2019-01-29T18:43:27.475Z,9.75
2019-01-29T18:45:57.583Z,12.00
2019-01-29T18:48:27.701Z,10.82
2019-01-29T18:50:57.798Z,9.65
2019-01-29T18:53:27.889Z,10.63
2019-01-29T18:55:58.053Z,10.72
2019-01-29T18:58:28.117Z,10.90
2019-01-29T19:00:58.212Z,10.90
2019-01-29T19:03:37.525Z,9.03
2019-01-29T19:06:09.645Z,13.15
2019-01-29T19:08:46.534Z,11.18
2019-01-29T19:11:16.631Z,9.80
2019-01-29T19:13:46.775Z,10.32
2019-01-29T19:16:18.746Z,10.70
2019-01-29T19:18:48.838Z,9.93
2019-01-29T19:21:24.837Z,11.48
2019-01-29T19:24:00.909Z,11.40
2019-01-29T19:26:31.913Z,11.68
2019-01-29T19:29:02.949Z,13.40
2019-01-29T19:31:37.173Z,13.95
2019-01-29T19:34:07.334Z,12.20
2019-01-29T19:36:39.366Z,11.25
2019-01-29T19:39:09.705Z,11.97
2019-01-29T19:41:40.729Z,11.80
2019-01-29T19:44:10.923Z,11.40
2019-01-29T19:46:41.181Z,13.13
2019-01-29T19:49:11.439Z,13.28
2019-01-29T19:51:41.633Z,12.78
2019-01-29T19:54:13.805Z,14.28
2019-01-29T19:56:46.134Z,13.55
2019-01-29T19:59:16.430Z,14.45
2019-01-29T20:01:47.633Z,16.10
2019-01-29T20:04:18.702Z,17.17
2019-01-29T20:06:49.886Z,17.37
2019-01-29T20:09:21.975Z,19.02
2019-01-29T20:11:52.257Z,14.58
2019-01-29T20:14:23.472Z,13.08
2019-01-29T20:16:54.623Z,14.28
2019-01-29T20:19:24.873Z,16.02
2019-01-29T20:21:55.033Z,14.75
2019-01-29T20:24:28.078Z,15.53
2019-01-29T20:26:58.306Z,14.80
2019-01-29T20:29:32.220Z,15.83
2019-01-29T20:32:03.353Z,16.05
2019-01-29T20:34:34.499Z,14.03
2019-01-29T20:37:06.689Z,13.95
2019-01-29T20:39:36.858Z,14.87
2019-01-29T20:42:08.147Z,14.87
2019-01-29T20:44:38.385Z,17.50
2019-01-29T20:47:10.498Z,14.35
2019-01-29T20:49:40.678Z,16.75
2019-01-29T20:52:12.448Z,16.15
2019-01-29T20:54:44.573Z,14.43
2019-01-29T20:57:14.898Z,13.45
2019-01-29T20:59:45.086Z,13.78
2019-01-29T21:02:15.258Z,15.43
2019-01-29T21:04:45.474Z,13.05
2019-01-29T21:07:15.747Z,13.03
2019-01-29T21:09:48.118Z,15.65
2019-01-29T21:12:20.127Z,13.75
2019-01-29T21:14:52.521Z,12.70
2019-01-29T21:17:25.012Z,13.18
2019-01-29T21:19:55.253Z,13.93
2019-01-29T21:22:25.489Z,13.25
2019-01-29T21:24:55.757Z,14.10
2019-01-29T21:27:25.938Z,16.77
2019-01-29T21:29:58.094Z,15.38
2019-01-29T21:32:30.419Z,14.40
2019-01-29T21:35:02.593Z,14.53
2019-01-29T21:37:34.757Z,15.65
2019-01-29T21:40:12.798Z,14.63
2019-01-29T21:42:49.208Z,16.40
2019-01-29T21:45:21.328Z,14.23
2019-01-29T21:47:52.885Z,15.88
2019-01-29T21:50:33.146Z,17.37
2019-01-29T21:53:04.710Z,15.98
2019-01-29T21:55:35.070Z,14.87
2019-01-29T21:58:11.114Z,17.05
2019-01-29T22:00:43.341Z,16.67
2019-01-29T22:03:13.605Z,15.70
2019-01-29T22:05:44.026Z,14.80
2019-01-29T22:08:15.260Z,19.50
2019-01-29T22:10:47.606Z,19.00
2019-01-29T22:13:18.730Z,19.98
2019-01-29T22:15:55.003Z,18.15
2019-01-29T22:18:25.211Z,15.68
2019-01-29T22:20:55.430Z,14.87
2019-01-29T22:23:26.738Z,15.20
2019-01-29T22:25:56.985Z,16.07
2019-01-29T22:28:29.814Z,14.47
2019-01-29T22:31:00.196Z,14.90
2019-01-29T22:33:32.744Z,15.08
2019-01-29T22:36:02.918Z,16.57
2019-01-29T22:38:33.710Z,18.10
2019-01-29T22:41:04.234Z,16.32
2019-01-29T22:43:34.525Z,17.80
2019-01-29T22:46:05.791Z,18.82
2019-01-29T22:48:36.978Z,19.42
2019-01-29T22:51:07.314Z,18.30
2019-01-29T22:53:37.526Z,17.87
2019-01-29T22:56:07.773Z,17.92
2019-01-29T22:58:38.050Z,17.07
2019-01-29T23:01:15.715Z,16.87
2019-01-29T23:03:46.143Z,16.23
2019-01-29T23:06:30.787Z,19.70
2019-01-29T23:09:02.274Z,15.18
2019-01-29T23:11:34.502Z,17.73
2019-01-29T23:14:07.172Z,21.12
2019-01-29T23:16:37.682Z,22.07
2019-01-29T23:19:08.978Z,18.90
2019-01-29T23:21:39.330Z,20.72
2019-01-29T23:24:12.642Z,19.17
2019-01-29T23:26:43.790Z,19.80
2019-01-29T23:29:13.902Z,20.65
2019-01-29T23:31:44.067Z,22.00
2019-01-29T23:34:14.174Z,19.27
2019-01-29T23:36:44.283Z,20.60
2019-01-29T23:39:15.367Z,18.77
2019-01-29T23:41:45.495Z,19.10
2019-01-29T23:44:16.534Z,18.77
2019-01-29T23:46:53.494Z,17.90
2019-01-29T23:49:25.568Z,17.75
2019-01-29T23:51:55.706Z,16.93
2019-01-29T23:54:25.786Z,16.82
2019-01-29T23:56:56.022Z,16.97
2019-01-29T23:59:26.366Z,18.45
